sensor_id;sensor_type;location;lat;lon;timestamp;temperature;humidity
47861;HTU21D;33620;52.340;5.984;2023-05-23T00:01:28;16.57;80.58
47861;HTU21D;33620;52.340;5.984;2023-05-23T00:03:56;16.49;80.49
47861;HTU21D;33620;52.340;5.984;2023-05-23T00:06:21;16.51;80.71
47861;HTU21D;33620;52.340;5.984;2023-05-23T00:08:47;16.50;80.90
47861;HTU21D;33620;52.340;5.984;2023-05-23T00:11:12;16.51;80.96
47861;HTU21D;33620;52.340;5.984;2023-05-23T00:13:38;16.44;81.23
47861;HTU21D;33620;52.340;5.984;2023-05-23T00:16:04;16.40;81.19
47861;HTU21D;33620;52.340;5.984;2023-05-23T00:18:29;16.27;81.43
47861;HTU21D;33620;52.340;5.984;2023-05-23T00:20:55;16.21;82.08
47861;HTU21D;33620;52.340;5.984;2023-05-23T00:23:21;16.07;82.42
47861;HTU21D;33620;52.340;5.984;2023-05-23T00:25:49;16.03;82.77
47861;HTU21D;33620;52.340;5.984;2023-05-23T00:28:17;15.98;83.35
47861;HTU21D;33620;52.340;5.984;2023-05-23T00:30:42;15.96;83.56
47861;HTU21D;33620;52.340;5.984;2023-05-23T00:33:08;15.96;83.69
47861;HTU21D;33620;52.340;5.984;2023-05-23T00:35:33;15.93;82.85
47861;HTU21D;33620;52.340;5.984;2023-05-23T00:37:59;15.82;82.78
47861;HTU21D;33620;52.340;5.984;2023-05-23T00:40:26;15.85;83.06
47861;HTU21D;33620;52.340;5.984;2023-05-23T00:42:52;15.83;82.84
47861;HTU21D;33620;52.340;5.984;2023-05-23T00:45:17;15.89;82.71
47861;HTU21D;33620;52.340;5.984;2023-05-23T00:47:43;15.81;82.84
47861;HTU21D;33620;52.340;5.984;2023-05-23T00:50:11;15.77;83.15
47861;HTU21D;33620;52.340;5.984;2023-05-23T00:52:41;15.67;83.60
47861;HTU21D;33620;52.340;5.984;2023-05-23T00:55:07;15.58;83.89
47861;HTU21D;33620;52.340;5.984;2023-05-23T00:57:33;15.56;84.25
47861;HTU21D;33620;52.340;5.984;2023-05-23T01:00:00;15.55;84.64
47861;HTU21D;33620;52.340;5.984;2023-05-23T01:02:26;15.59;84.26
47861;HTU21D;33620;52.340;5.984;2023-05-23T01:04:52;15.47;84.61
47861;HTU21D;33620;52.340;5.984;2023-05-23T01:07:19;15.57;84.32
47861;HTU21D;33620;52.340;5.984;2023-05-23T01:09:45;15.54;84.09
47861;HTU21D;33620;52.340;5.984;2023-05-23T01:15:12;15.65;83.78
47861;HTU21D;33620;52.340;5.984;2023-05-23T01:17:53;15.70;83.64
47861;HTU21D;33620;52.340;5.984;2023-05-23T01:20:21;15.62;83.55
47861;HTU21D;33620;52.340;5.984;2023-05-23T01:25:45;15.55;84.13
47861;HTU21D;33620;52.340;5.984;2023-05-23T01:28:15;15.59;83.74
47861;HTU21D;33620;52.340;5.984;2023-05-23T01:30:43;15.60;83.76
47861;HTU21D;33620;52.340;5.984;2023-05-23T01:33:10;15.60;83.58
47861;HTU21D;33620;52.340;5.984;2023-05-23T01:35:37;15.63;83.38
47861;HTU21D;33620;52.340;5.984;2023-05-23T01:38:03;15.57;83.48
47861;HTU21D;33620;52.340;5.984;2023-05-23T01:40:29;15.58;83.47
47861;HTU21D;33620;52.340;5.984;2023-05-23T01:42:55;15.47;83.72
47861;HTU21D;33620;52.340;5.984;2023-05-23T01:45:25;15.32;84.41
47861;HTU21D;33620;52.340;5.984;2023-05-23T01:47:52;15.34;84.45
47861;HTU21D;33620;52.340;5.984;2023-05-23T01:50:18;15.25;84.62
47861;HTU21D;33620;52.340;5.984;2023-05-23T01:52:45;15.26;84.78
47861;HTU21D;33620;52.340;5.984;2023-05-23T01:55:12;15.26;84.75
47861;HTU21D;33620;52.340;5.984;2023-05-23T01:57:40;15.28;84.80
47861;HTU21D;33620;52.340;5.984;2023-05-23T02:00:06;15.30;84.73
47861;HTU21D;33620;52.340;5.984;2023-05-23T02:02:32;15.31;84.92
47861;HTU21D;33620;52.340;5.984;2023-05-23T02:04:58;15.38;84.87
47861;HTU21D;33620;52.340;5.984;2023-05-23T02:07:24;15.44;84.35
47861;HTU21D;33620;52.340;5.984;2023-05-23T02:09:50;15.43;84.26
47861;HTU21D;33620;52.340;5.984;2023-05-23T02:12:15;15.44;84.24
47861;HTU21D;33620;52.340;5.984;2023-05-23T02:14:41;15.46;84.00
47861;HTU21D;33620;52.340;5.984;2023-05-23T02:17:07;15.41;84.02
47861;HTU21D;33620;52.340;5.984;2023-05-23T02:19:34;15.40;84.43
47861;HTU21D;33620;52.340;5.984;2023-05-23T02:22:00;15.48;84.14
47861;HTU21D;33620;52.340;5.984;2023-05-23T02:24:25;15.43;84.00
47861;HTU21D;33620;52.340;5.984;2023-05-23T02:26:51;15.38;84.23
47861;HTU21D;33620;52.340;5.984;2023-05-23T02:29:17;15.38;84.42
47861;HTU21D;33620;52.340;5.984;2023-05-23T02:31:42;15.39;84.19
47861;HTU21D;33620;52.340;5.984;2023-05-23T02:34:08;15.37;84.28
47861;HTU21D;33620;52.340;5.984;2023-05-23T02:36:33;15.31;84.20
47861;HTU21D;33620;52.340;5.984;2023-05-23T02:38:58;15.31;84.13
47861;HTU21D;33620;52.340;5.984;2023-05-23T02:41:24;15.19;84.36
47861;HTU21D;33620;52.340;5.984;2023-05-23T02:43:49;15.14;84.49
47861;HTU21D;33620;52.340;5.984;2023-05-23T02:46:15;15.17;84.66
47861;HTU21D;33620;52.340;5.984;2023-05-23T02:48:40;15.15;84.23
47861;HTU21D;33620;52.340;5.984;2023-05-23T02:51:05;15.13;84.24
47861;HTU21D;33620;52.340;5.984;2023-05-23T02:53:31;15.08;84.32
47861;HTU21D;33620;52.340;5.984;2023-05-23T02:55:56;15.09;84.13
47861;HTU21D;33620;52.340;5.984;2023-05-23T02:58:22;15.15;83.85
47861;HTU21D;33620;52.340;5.984;2023-05-23T03:00:48;15.15;84.17
47861;HTU21D;33620;52.340;5.984;2023-05-23T03:03:13;15.18;83.78
47861;HTU21D;33620;52.340;5.984;2023-05-23T03:05:38;15.10;83.95
47861;HTU21D;33620;52.340;5.984;2023-05-23T03:08:04;15.17;83.73
47861;HTU21D;33620;52.340;5.984;2023-05-23T03:10:30;15.09;83.61
47861;HTU21D;33620;52.340;5.984;2023-05-23T03:12:56;15.15;83.78
47861;HTU21D;33620;52.340;5.984;2023-05-23T03:15:21;15.19;83.53
47861;HTU21D;33620;52.340;5.984;2023-05-23T03:17:46;15.15;83.79
47861;HTU21D;33620;52.340;5.984;2023-05-23T03:20:12;15.17;83.65
47861;HTU21D;33620;52.340;5.984;2023-05-23T03:22:39;15.17;83.36
47861;HTU21D;33620;52.340;5.984;2023-05-23T03:25:06;15.16;83.20
47861;HTU21D;33620;52.340;5.984;2023-05-23T03:27:32;15.17;82.89
47861;HTU21D;33620;52.340;5.984;2023-05-23T03:29:57;15.26;82.71
47861;HTU21D;33620;52.340;5.984;2023-05-23T03:32:23;15.25;81.87
47861;HTU21D;33620;52.340;5.984;2023-05-23T03:34:48;15.26;82.13
47861;HTU21D;33620;52.340;5.984;2023-05-23T03:37:13;15.33;81.97
47861;HTU21D;33620;52.340;5.984;2023-05-23T03:39:39;15.26;81.65
47861;HTU21D;33620;52.340;5.984;2023-05-23T03:42:04;15.25;81.84
47861;HTU21D;33620;52.340;5.984;2023-05-23T03:44:30;15.29;81.78
47861;HTU21D;33620;52.340;5.984;2023-05-23T03:46:55;15.29;81.36
47861;HTU21D;33620;52.340;5.984;2023-05-23T03:49:20;15.21;81.51
47861;HTU21D;33620;52.340;5.984;2023-05-23T03:51:46;15.17;81.73
47861;HTU21D;33620;52.340;5.984;2023-05-23T03:54:11;15.03;81.75
47861;HTU21D;33620;52.340;5.984;2023-05-23T03:56:36;15.03;82.02
47861;HTU21D;33620;52.340;5.984;2023-05-23T03:59:02;15.08;81.99
47861;HTU21D;33620;52.340;5.984;2023-05-23T04:01:27;15.09;81.64
47861;HTU21D;33620;52.340;5.984;2023-05-23T04:03:52;15.07;81.27
47861;HTU21D;33620;52.340;5.984;2023-05-23T04:06:18;15.02;81.61
47861;HTU21D;33620;52.340;5.984;2023-05-23T04:08:44;14.89;81.37
47861;HTU21D;33620;52.340;5.984;2023-05-23T04:11:09;14.84;81.56
47861;HTU21D;33620;52.340;5.984;2023-05-23T04:13:35;14.87;81.74
47861;HTU21D;33620;52.340;5.984;2023-05-23T04:16:01;14.91;81.65
47861;HTU21D;33620;52.340;5.984;2023-05-23T04:18:30;14.97;81.47
47861;HTU21D;33620;52.340;5.984;2023-05-23T04:20:55;14.94;81.02
47861;HTU21D;33620;52.340;5.984;2023-05-23T04:23:20;14.89;80.89
47861;HTU21D;33620;52.340;5.984;2023-05-23T04:25:46;14.81;81.13
47861;HTU21D;33620;52.340;5.984;2023-05-23T04:28:12;14.69;81.56
47861;HTU21D;33620;52.340;5.984;2023-05-23T04:30:38;14.63;81.73
47861;HTU21D;33620;52.340;5.984;2023-05-23T04:33:03;14.65;82.01
47861;HTU21D;33620;52.340;5.984;2023-05-23T04:35:28;14.72;81.76
47861;HTU21D;33620;52.340;5.984;2023-05-23T04:37:54;14.71;81.53
47861;HTU21D;33620;52.340;5.984;2023-05-23T04:40:22;14.74;81.55
47861;HTU21D;33620;52.340;5.984;2023-05-23T04:42:48;14.63;81.57
47861;HTU21D;33620;52.340;5.984;2023-05-23T04:45:14;14.53;81.36
47861;HTU21D;33620;52.340;5.984;2023-05-23T04:47:39;14.54;81.56
47861;HTU21D;33620;52.340;5.984;2023-05-23T04:50:06;14.51;81.88
47861;HTU21D;33620;52.340;5.984;2023-05-23T04:52:31;14.44;81.74
47861;HTU21D;33620;52.340;5.984;2023-05-23T04:54:58;14.53;81.89
47861;HTU21D;33620;52.340;5.984;2023-05-23T04:57:24;14.54;80.91
47861;HTU21D;33620;52.340;5.984;2023-05-23T04:59:49;14.45;80.91
47861;HTU21D;33620;52.340;5.984;2023-05-23T05:02:15;14.33;81.04
47861;HTU21D;33620;52.340;5.984;2023-05-23T05:04:40;14.38;81.39
47861;HTU21D;33620;52.340;5.984;2023-05-23T05:07:06;14.37;81.30
47861;HTU21D;33620;52.340;5.984;2023-05-23T05:09:31;14.44;81.17
47861;HTU21D;33620;52.340;5.984;2023-05-23T05:11:57;14.39;80.69
47861;HTU21D;33620;52.340;5.984;2023-05-23T05:14:27;14.29;81.28
47861;HTU21D;33620;52.340;5.984;2023-05-23T05:16:52;14.35;81.49
47861;HTU21D;33620;52.340;5.984;2023-05-23T05:19:19;14.29;81.04
47861;HTU21D;33620;52.340;5.984;2023-05-23T05:21:45;14.26;81.19
47861;HTU21D;33620;52.340;5.984;2023-05-23T05:24:11;14.27;81.22
47861;HTU21D;33620;52.340;5.984;2023-05-23T05:26:37;14.30;81.35
47861;HTU21D;33620;52.340;5.984;2023-05-23T05:29:02;14.27;81.18
47861;HTU21D;33620;52.340;5.984;2023-05-23T05:31:28;14.08;81.39
47861;HTU21D;33620;52.340;5.984;2023-05-23T05:33:54;13.96;81.97
47861;HTU21D;33620;52.340;5.984;2023-05-23T05:36:19;13.83;82.51
47861;HTU21D;33620;52.340;5.984;2023-05-23T05:38:45;13.76;82.82
47861;HTU21D;33620;52.340;5.984;2023-05-23T05:41:11;13.71;82.75
47861;HTU21D;33620;52.340;5.984;2023-05-23T05:43:36;13.78;82.39
47861;HTU21D;33620;52.340;5.984;2023-05-23T05:46:02;13.83;81.50
47861;HTU21D;33620;52.340;5.984;2023-05-23T05:48:27;13.76;81.14
47861;HTU21D;33620;52.340;5.984;2023-05-23T05:50:52;13.73;81.30
47861;HTU21D;33620;52.340;5.984;2023-05-23T05:53:18;13.76;81.26
47861;HTU21D;33620;52.340;5.984;2023-05-23T05:55:43;13.74;80.96
47861;HTU21D;33620;52.340;5.984;2023-05-23T05:58:08;13.78;81.01
47861;HTU21D;33620;52.340;5.984;2023-05-23T06:00:34;13.69;80.41
47861;HTU21D;33620;52.340;5.984;2023-05-23T06:03:08;13.60;80.43
47861;HTU21D;33620;52.340;5.984;2023-05-23T06:05:34;13.53;80.56
47861;HTU21D;33620;52.340;5.984;2023-05-23T06:08:01;13.62;80.53
47861;HTU21D;33620;52.340;5.984;2023-05-23T06:10:27;13.61;80.62
47861;HTU21D;33620;52.340;5.984;2023-05-23T06:12:52;13.58;79.82
47861;HTU21D;33620;52.340;5.984;2023-05-23T06:15:18;13.50;80.04
47861;HTU21D;33620;52.340;5.984;2023-05-23T06:17:43;13.51;79.88
47861;HTU21D;33620;52.340;5.984;2023-05-23T06:20:09;13.53;80.07
47861;HTU21D;33620;52.340;5.984;2023-05-23T06:22:35;13.65;79.12
47861;HTU21D;33620;52.340;5.984;2023-05-23T06:25:00;13.66;78.48
47861;HTU21D;33620;52.340;5.984;2023-05-23T06:27:26;13.69;78.37
47861;HTU21D;33620;52.340;5.984;2023-05-23T06:29:52;13.68;77.76
47861;HTU21D;33620;52.340;5.984;2023-05-23T06:32:17;13.65;77.95
47861;HTU21D;33620;52.340;5.984;2023-05-23T06:34:42;13.58;77.95
47861;HTU21D;33620;52.340;5.984;2023-05-23T06:37:08;13.60;78.06
47861;HTU21D;33620;52.340;5.984;2023-05-23T06:39:33;13.70;78.03
47861;HTU21D;33620;52.340;5.984;2023-05-23T06:41:59;13.79;77.21
47861;HTU21D;33620;52.340;5.984;2023-05-23T06:44:25;13.75;76.08
47861;HTU21D;33620;52.340;5.984;2023-05-23T06:46:51;13.73;75.51
47861;HTU21D;33620;52.340;5.984;2023-05-23T06:49:24;13.78;75.47
47861;HTU21D;33620;52.340;5.984;2023-05-23T06:51:50;13.82;74.96
47861;HTU21D;33620;52.340;5.984;2023-05-23T06:54:16;13.80;74.51
47861;HTU21D;33620;52.340;5.984;2023-05-23T06:56:42;13.77;73.09
47861;HTU21D;33620;52.340;5.984;2023-05-23T06:59:07;13.75;73.34
47861;HTU21D;33620;52.340;5.984;2023-05-23T07:01:32;13.77;73.74
47861;HTU21D;33620;52.340;5.984;2023-05-23T07:03:58;13.81;73.48
47861;HTU21D;33620;52.340;5.984;2023-05-23T07:06:24;13.80;73.65
47861;HTU21D;33620;52.340;5.984;2023-05-23T07:08:51;13.82;73.64
47861;HTU21D;33620;52.340;5.984;2023-05-23T07:11:17;13.81;73.53
47861;HTU21D;33620;52.340;5.984;2023-05-23T07:13:42;13.76;73.85
47861;HTU21D;33620;52.340;5.984;2023-05-23T07:16:08;13.67;74.15
47861;HTU21D;33620;52.340;5.984;2023-05-23T07:18:33;13.58;74.38
47861;HTU21D;33620;52.340;5.984;2023-05-23T07:20:58;13.63;74.81
47861;HTU21D;33620;52.340;5.984;2023-05-23T07:23:24;13.47;75.02
47861;HTU21D;33620;52.340;5.984;2023-05-23T07:25:49;13.53;74.90
47861;HTU21D;33620;52.340;5.984;2023-05-23T07:28:15;13.55;74.22
47861;HTU21D;33620;52.340;5.984;2023-05-23T07:30:41;13.54;74.15
47861;HTU21D;33620;52.340;5.984;2023-05-23T07:33:06;13.49;74.57
47861;HTU21D;33620;52.340;5.984;2023-05-23T07:35:32;13.50;74.47
47861;HTU21D;33620;52.340;5.984;2023-05-23T07:37:57;13.50;74.11
47861;HTU21D;33620;52.340;5.984;2023-05-23T07:40:23;13.64;73.66
47861;HTU21D;33620;52.340;5.984;2023-05-23T07:42:48;13.75;72.94
47861;HTU21D;33620;52.340;5.984;2023-05-23T07:45:14;13.74;72.03
47861;HTU21D;33620;52.340;5.984;2023-05-23T07:47:40;13.84;71.72
47861;HTU21D;33620;52.340;5.984;2023-05-23T07:50:06;13.98;71.16
47861;HTU21D;33620;52.340;5.984;2023-05-23T07:52:32;14.06;70.74
47861;HTU21D;33620;52.340;5.984;2023-05-23T07:54:58;14.24;71.21
47861;HTU21D;33620;52.340;5.984;2023-05-23T07:57:23;14.36;69.58
47861;HTU21D;33620;52.340;5.984;2023-05-23T07:59:50;14.39;69.49
47861;HTU21D;33620;52.340;5.984;2023-05-23T08:02:16;14.39;69.24
47861;HTU21D;33620;52.340;5.984;2023-05-23T08:04:42;14.30;68.46
47861;HTU21D;33620;52.340;5.984;2023-05-23T08:07:07;14.24;67.40
47861;HTU21D;33620;52.340;5.984;2023-05-23T08:09:34;14.17;67.97
47861;HTU21D;33620;52.340;5.984;2023-05-23T08:11:59;14.06;66.39
47861;HTU21D;33620;52.340;5.984;2023-05-23T08:14:25;14.10;66.24
47861;HTU21D;33620;52.340;5.984;2023-05-23T08:16:50;14.11;64.58
47861;HTU21D;33620;52.340;5.984;2023-05-23T08:19:15;14.12;65.81
47861;HTU21D;33620;52.340;5.984;2023-05-23T08:21:41;14.30;65.41
47861;HTU21D;33620;52.340;5.984;2023-05-23T08:24:07;14.43;66.12
47861;HTU21D;33620;52.340;5.984;2023-05-23T08:26:32;14.40;64.40
47861;HTU21D;33620;52.340;5.984;2023-05-23T08:29:01;14.37;64.36
47861;HTU21D;33620;52.340;5.984;2023-05-23T08:31:28;14.39;64.61
47861;HTU21D;33620;52.340;5.984;2023-05-23T08:33:54;14.47;64.53
47861;HTU21D;33620;52.340;5.984;2023-05-23T08:36:19;14.41;64.08
47861;HTU21D;33620;52.340;5.984;2023-05-23T08:38:44;14.47;64.21
47861;HTU21D;33620;52.340;5.984;2023-05-23T08:41:20;14.72;64.08
47861;HTU21D;33620;52.340;5.984;2023-05-23T08:43:46;14.80;63.25
47861;HTU21D;33620;52.340;5.984;2023-05-23T08:46:12;14.89;61.85
47861;HTU21D;33620;52.340;5.984;2023-05-23T08:48:38;14.98;62.22
47861;HTU21D;33620;52.340;5.984;2023-05-23T08:51:06;15.03;60.91
47861;HTU21D;33620;52.340;5.984;2023-05-23T08:53:35;15.06;59.64
47861;HTU21D;33620;52.340;5.984;2023-05-23T08:56:02;15.06;60.98
47861;HTU21D;33620;52.340;5.984;2023-05-23T08:58:31;14.96;60.96
47861;HTU21D;33620;52.340;5.984;2023-05-23T09:00:58;14.97;61.09
47861;HTU21D;33620;52.340;5.984;2023-05-23T09:03:27;14.89;61.08
47861;HTU21D;33620;52.340;5.984;2023-05-23T09:05:54;14.81;61.63
47861;HTU21D;33620;52.340;5.984;2023-05-23T09:08:20;14.99;62.01
47861;HTU21D;33620;52.340;5.984;2023-05-23T09:10:47;15.21;61.37
47861;HTU21D;33620;52.340;5.984;2023-05-23T09:13:14;15.43;61.44
47861;HTU21D;33620;52.340;5.984;2023-05-23T09:18:33;15.82;59.91
47861;HTU21D;33620;52.340;5.984;2023-05-23T09:21:00;15.92;59.41
47861;HTU21D;33620;52.340;5.984;2023-05-23T09:23:29;16.11;59.31
47861;HTU21D;33620;52.340;5.984;2023-05-23T09:25:54;16.24;58.59
47861;HTU21D;33620;52.340;5.984;2023-05-23T09:28:20;16.47;59.50
47861;HTU21D;33620;52.340;5.984;2023-05-23T09:30:46;16.64;57.18
47861;HTU21D;33620;52.340;5.984;2023-05-23T09:33:13;16.47;55.67
47861;HTU21D;33620;52.340;5.984;2023-05-23T09:35:43;16.49;55.39
47861;HTU21D;33620;52.340;5.984;2023-05-23T09:38:09;16.61;56.10
47861;HTU21D;33620;52.340;5.984;2023-05-23T09:40:34;16.52;55.58
47861;HTU21D;33620;52.340;5.984;2023-05-23T09:43:03;16.39;56.75
47861;HTU21D;33620;52.340;5.984;2023-05-23T09:45:30;16.20;56.04
47861;HTU21D;33620;52.340;5.984;2023-05-23T09:47:55;16.08;56.60
47861;HTU21D;33620;52.340;5.984;2023-05-23T09:50:21;16.14;57.24
47861;HTU21D;33620;52.340;5.984;2023-05-23T09:52:47;16.19;55.81
47861;HTU21D;33620;52.340;5.984;2023-05-23T09:55:13;16.41;56.68
47861;HTU21D;33620;52.340;5.984;2023-05-23T09:57:40;16.55;56.21
47861;HTU21D;33620;52.340;5.984;2023-05-23T10:00:07;16.60;53.82
47861;HTU21D;33620;52.340;5.984;2023-05-23T10:03:09;16.66;54.43
47861;HTU21D;33620;52.340;5.984;2023-05-23T10:05:49;16.61;53.20
47861;HTU21D;33620;52.340;5.984;2023-05-23T10:08:18;16.41;53.88
47861;HTU21D;33620;52.340;5.984;2023-05-23T10:13:21;16.67;54.07
47861;HTU21D;33620;52.340;5.984;2023-05-23T10:15:48;16.84;54.65
47861;HTU21D;33620;52.340;5.984;2023-05-23T10:18:17;16.90;53.68
47861;HTU21D;33620;52.340;5.984;2023-05-23T10:20:48;16.81;53.40
47861;HTU21D;33620;52.340;5.984;2023-05-23T10:23:14;16.71;54.66
47861;HTU21D;33620;52.340;5.984;2023-05-23T10:25:41;16.64;55.43
47861;HTU21D;33620;52.340;5.984;2023-05-23T10:28:07;16.72;55.65
47861;HTU21D;33620;52.340;5.984;2023-05-23T10:30:33;16.89;53.65
47861;HTU21D;33620;52.340;5.984;2023-05-23T10:32:59;16.71;53.66
47861;HTU21D;33620;52.340;5.984;2023-05-23T10:35:59;16.51;53.65
47861;HTU21D;33620;52.340;5.984;2023-05-23T10:41:04;16.35;54.78
47861;HTU21D;33620;52.340;5.984;2023-05-23T10:43:35;16.41;55.77
47861;HTU21D;33620;52.340;5.984;2023-05-23T10:46:08;16.44;55.34
47861;HTU21D;33620;52.340;5.984;2023-05-23T10:48:34;16.48;55.94
47861;HTU21D;33620;52.340;5.984;2023-05-23T10:53:42;16.43;52.77
47861;HTU21D;33620;52.340;5.984;2023-05-23T10:56:09;16.49;54.59
47861;HTU21D;33620;52.340;5.984;2023-05-23T10:58:36;16.36;55.58
47861;HTU21D;33620;52.340;5.984;2023-05-23T11:01:07;16.47;55.55
47861;HTU21D;33620;52.340;5.984;2023-05-23T11:06:37;16.46;55.81
47861;HTU21D;33620;52.340;5.984;2023-05-23T11:09:13;16.33;56.02
47861;HTU21D;33620;52.340;5.984;2023-05-23T11:11:53;16.42;54.90
47861;HTU21D;33620;52.340;5.984;2023-05-23T11:19:36;16.70;54.23
47861;HTU21D;33620;52.340;5.984;2023-05-23T11:22:02;16.70;52.56
47861;HTU21D;33620;52.340;5.984;2023-05-23T11:27:15;16.63;55.18
47861;HTU21D;33620;52.340;5.984;2023-05-23T11:29:41;16.57;55.04
47861;HTU21D;33620;52.340;5.984;2023-05-23T11:32:11;16.59;54.42
47861;HTU21D;33620;52.340;5.984;2023-05-23T11:34:37;16.71;53.94
47861;HTU21D;33620;52.340;5.984;2023-05-23T11:37:03;16.95;54.33
47861;HTU21D;33620;52.340;5.984;2023-05-23T11:39:29;16.87;51.90
47861;HTU21D;33620;52.340;5.984;2023-05-23T11:42:01;16.77;54.23
47861;HTU21D;33620;52.340;5.984;2023-05-23T11:44:27;16.63;53.46
47861;HTU21D;33620;52.340;5.984;2023-05-23T11:47:05;16.64;53.10
47861;HTU21D;33620;52.340;5.984;2023-05-23T11:49:34;16.78;54.20
47861;HTU21D;33620;52.340;5.984;2023-05-23T11:52:01;16.89;52.46
47861;HTU21D;33620;52.340;5.984;2023-05-23T11:54:27;16.82;51.98
47861;HTU21D;33620;52.340;5.984;2023-05-23T11:56:53;16.73;51.96
47861;HTU21D;33620;52.340;5.984;2023-05-23T11:59:20;16.89;52.41
47861;HTU21D;33620;52.340;5.984;2023-05-23T12:01:46;17.06;52.68
47861;HTU21D;33620;52.340;5.984;2023-05-23T12:04:11;16.95;51.50
47861;HTU21D;33620;52.340;5.984;2023-05-23T12:06:40;16.84;52.75
47861;HTU21D;33620;52.340;5.984;2023-05-23T12:09:06;16.73;52.57
47861;HTU21D;33620;52.340;5.984;2023-05-23T12:11:33;16.55;53.55
47861;HTU21D;33620;52.340;5.984;2023-05-23T12:13:59;16.47;53.75
47861;HTU21D;33620;52.340;5.984;2023-05-23T12:16:27;16.43;53.62
47861;HTU21D;33620;52.340;5.984;2023-05-23T12:18:53;16.48;54.53
47861;HTU21D;33620;52.340;5.984;2023-05-23T12:21:19;16.74;54.64
47861;HTU21D;33620;52.340;5.984;2023-05-23T12:23:44;16.93;53.26
47861;HTU21D;33620;52.340;5.984;2023-05-23T12:26:09;16.87;52.30
47861;HTU21D;33620;52.340;5.984;2023-05-23T12:28:38;16.85;51.11
47861;HTU21D;33620;52.340;5.984;2023-05-23T12:31:12;16.76;51.40
47861;HTU21D;33620;52.340;5.984;2023-05-23T12:33:41;16.75;52.04
47861;HTU21D;33620;52.340;5.984;2023-05-23T12:36:12;16.60;51.27
47861;HTU21D;33620;52.340;5.984;2023-05-23T12:38:37;16.78;52.04
47861;HTU21D;33620;52.340;5.984;2023-05-23T12:41:31;16.77;50.47
47861;HTU21D;33620;52.340;5.984;2023-05-23T12:43:57;16.50;51.86
47861;HTU21D;33620;52.340;5.984;2023-05-23T12:46:24;16.54;52.63
47861;HTU21D;33620;52.340;5.984;2023-05-23T12:48:50;16.72;53.14
47861;HTU21D;33620;52.340;5.984;2023-05-23T12:51:16;16.82;52.36
47861;HTU21D;33620;52.340;5.984;2023-05-23T12:53:42;17.05;51.87
47861;HTU21D;33620;52.340;5.984;2023-05-23T12:56:07;17.24;51.79
47861;HTU21D;33620;52.340;5.984;2023-05-23T12:58:33;17.20;50.93
47861;HTU21D;33620;52.340;5.984;2023-05-23T13:01:00;17.21;49.42
47861;HTU21D;33620;52.340;5.984;2023-05-23T13:03:25;17.36;50.37
47861;HTU21D;33620;52.340;5.984;2023-05-23T13:05:50;17.38;49.89
47861;HTU21D;33620;52.340;5.984;2023-05-23T13:08:18;17.46;49.01
47861;HTU21D;33620;52.340;5.984;2023-05-23T13:10:44;17.36;49.11
47861;HTU21D;33620;52.340;5.984;2023-05-23T13:13:09;17.50;50.22
47861;HTU21D;33620;52.340;5.984;2023-05-23T13:15:35;17.56;48.82
47861;HTU21D;33620;52.340;5.984;2023-05-23T13:18:01;17.46;46.75
47861;HTU21D;33620;52.340;5.984;2023-05-23T13:20:27;17.02;48.52
47861;HTU21D;33620;52.340;5.984;2023-05-23T13:22:56;16.69;49.56
47861;HTU21D;33620;52.340;5.984;2023-05-23T13:25:22;16.64;50.54
47861;HTU21D;33620;52.340;5.984;2023-05-23T13:27:47;16.75;48.66
47861;HTU21D;33620;52.340;5.984;2023-05-23T13:30:13;16.69;49.53
47861;HTU21D;33620;52.340;5.984;2023-05-23T13:32:38;16.79;50.07
47861;HTU21D;33620;52.340;5.984;2023-05-23T13:35:04;17.05;49.19
47861;HTU21D;33620;52.340;5.984;2023-05-23T13:37:30;17.13;47.63
47861;HTU21D;33620;52.340;5.984;2023-05-23T13:39:55;17.41;46.99
47861;HTU21D;33620;52.340;5.984;2023-05-23T13:42:20;17.48;45.48
47861;HTU21D;33620;52.340;5.984;2023-05-23T13:44:46;17.53;47.89
47861;HTU21D;33620;52.340;5.984;2023-05-23T13:47:12;17.60;48.24
47861;HTU21D;33620;52.340;5.984;2023-05-23T13:49:38;17.39;48.58
47861;HTU21D;33620;52.340;5.984;2023-05-23T13:52:04;17.18;49.42
47861;HTU21D;33620;52.340;5.984;2023-05-23T13:54:30;17.05;50.55
47861;HTU21D;33620;52.340;5.984;2023-05-23T13:56:55;16.99;50.79
47861;HTU21D;33620;52.340;5.984;2023-05-23T13:59:21;16.92;49.89
47861;HTU21D;33620;52.340;5.984;2023-05-23T14:01:47;16.76;48.89
47861;HTU21D;33620;52.340;5.984;2023-05-23T14:04:12;16.95;50.14
47861;HTU21D;33620;52.340;5.984;2023-05-23T14:06:37;17.28;49.99
47861;HTU21D;33620;52.340;5.984;2023-05-23T14:09:03;17.26;48.08
47861;HTU21D;33620;52.340;5.984;2023-05-23T14:11:29;17.23;49.11
47861;HTU21D;33620;52.340;5.984;2023-05-23T14:13:54;17.16;49.08
47861;HTU21D;33620;52.340;5.984;2023-05-23T14:16:20;16.96;49.12
47861;HTU21D;33620;52.340;5.984;2023-05-23T14:18:45;17.07;49.18
47861;HTU21D;33620;52.340;5.984;2023-05-23T14:21:11;17.15;46.70
47861;HTU21D;33620;52.340;5.984;2023-05-23T14:23:36;17.23;47.03
47861;HTU21D;33620;52.340;5.984;2023-05-23T14:26:01;17.25;47.69
47861;HTU21D;33620;52.340;5.984;2023-05-23T14:28:27;17.00;43.27
47861;HTU21D;33620;52.340;5.984;2023-05-23T14:30:52;17.11;44.16
47861;HTU21D;33620;52.340;5.984;2023-05-23T14:33:19;17.14;44.16
47861;HTU21D;33620;52.340;5.984;2023-05-23T14:35:45;17.02;44.57
47861;HTU21D;33620;52.340;5.984;2023-05-23T14:38:10;17.03;45.90
47861;HTU21D;33620;52.340;5.984;2023-05-23T14:40:36;17.24;46.02
47861;HTU21D;33620;52.340;5.984;2023-05-23T14:43:01;17.44;44.70
47861;HTU21D;33620;52.340;5.984;2023-05-23T14:45:26;17.59;43.26
47861;HTU21D;33620;52.340;5.984;2023-05-23T14:47:52;17.73;45.27
47861;HTU21D;33620;52.340;5.984;2023-05-23T14:50:17;17.76;45.08
47861;HTU21D;33620;52.340;5.984;2023-05-23T14:52:43;17.76;45.45
47861;HTU21D;33620;52.340;5.984;2023-05-23T14:55:09;17.80;46.06
47861;HTU21D;33620;52.340;5.984;2023-05-23T14:57:35;17.83;44.96
47861;HTU21D;33620;52.340;5.984;2023-05-23T15:00:00;17.73;45.68
47861;HTU21D;33620;52.340;5.984;2023-05-23T15:02:29;17.84;45.25
47861;HTU21D;33620;52.340;5.984;2023-05-23T15:04:55;17.81;44.29
47861;HTU21D;33620;52.340;5.984;2023-05-23T15:07:20;17.79;44.82
47861;HTU21D;33620;52.340;5.984;2023-05-23T15:09:46;17.64;44.87
47861;HTU21D;33620;52.340;5.984;2023-05-23T15:12:12;17.53;46.19
47861;HTU21D;33620;52.340;5.984;2023-05-23T15:14:40;17.40;46.22
47861;HTU21D;33620;52.340;5.984;2023-05-23T15:17:05;17.29;46.44
47861;HTU21D;33620;52.340;5.984;2023-05-23T15:19:36;17.10;46.08
47861;HTU21D;33620;52.340;5.984;2023-05-23T15:22:04;17.17;45.63
47861;HTU21D;33620;52.340;5.984;2023-05-23T15:24:30;17.14;45.33
47861;HTU21D;33620;52.340;5.984;2023-05-23T15:26:55;17.11;46.03
47861;HTU21D;33620;52.340;5.984;2023-05-23T15:29:21;17.17;44.83
47861;HTU21D;33620;52.340;5.984;2023-05-23T15:31:48;17.13;45.03
47861;HTU21D;33620;52.340;5.984;2023-05-23T15:34:13;17.05;45.09
47861;HTU21D;33620;52.340;5.984;2023-05-23T15:36:39;16.93;45.18
47861;HTU21D;33620;52.340;5.984;2023-05-23T15:39:05;17.10;45.38